Trumbull, Connecticut
Current Conditions -  °F | °C
As of 10:52 PM on Sunday 23 Nov 2014 (Local Time) from KBDR Reporting Station
Few Clouds Few Clouds  
Wind Chill: 42°   Ceiling: Unl
Heat Index: 45°   Visibility: 10mi
Dew Point: 39°   Wind: 6mph
Humidity: 80%   Direction: 50°NE
Pressure: 30.07"   Gusts: NA
Location:  41.23°N, 73.22°W
Report Text: KBDR 240352Z AUTO 05005KT 10SM FEW050 07/04 A3007 RMK AO2 SLP183 T00720039
Loading
Personal Weather Stations






























Interactive Weather Map New forecast layout! Learn more

10-Day Weather Forecast

Advertisements
Track Severe Weather on mobile